Time;durP1;ratioP1;P1;durP2;ratioP2;P2;SDS_P1;SDS_P2;PMS_P1;PMS_P2;Temp;Humidity;BMP_temperature;BMP_pressure;BME280_temperature;BME280_humidity;BME280_pressure;Samples;Min_cycle;Max_cycle;Signal;HPM_P1;HPM_P2
2022/07/10 00:01:37;;;;;;;4.45;2.92;;;;;;;;;;6028756;29;20501;-79
2022/07/10 00:04:39;;;;;;;5.30;3.75;;;;;;;;;;6005455;29;20058;-77
2022/07/10 00:07:41;;;;;;;6.20;3.60;;;;;;;;;;6021947;29;20065;-78
2022/07/10 00:10:42;;;;;;;4.38;2.78;;;;;;;;;;6024363;29;20606;-80
2022/07/10 00:13:44;;;;;;;5.78;3.80;;;;;;;;;;6028191;29;20082;-77
2022/07/10 00:16:46;;;;;;;4.78;3.40;;;;;;;;;;6025701;29;20090;-78
2022/07/10 00:19:48;;;;;;;4.43;2.93;;;;;;;;;;6024005;29;20677;-78
2022/07/10 00:22:49;;;;;;;3.67;2.80;;;;;;;;;;6028017;29;20081;-79
2022/07/10 00:25:56;;;;;;;5.47;3.20;;;;;;;;;;6007435;29;20049;-80
2022/07/10 00:28:58;;;;;;;5.18;2.97;;;;;;;;;;6002138;29;20117;-78
2022/07/10 00:32:00;;;;;;;3.30;3.00;;;;;;;;;;6025646;29;20061;-78
2022/07/10 00:35:02;;;;;;;6.05;3.15;;;;;;;;;;6009865;29;20121;-77
2022/07/10 00:38:03;;;;;;;4.45;2.90;;;;;;;;;;6026390;29;20479;-78
2022/07/10 00:41:05;;;;;;;3.45;3.10;;;;;;;;;;6020244;29;20057;-78
2022/07/10 00:44:07;;;;;;;4.05;3.00;;;;;;;;;;6022951;29;20084;-76
2022/07/10 00:47:10;;;;;;;5.88;3.13;;;;;;;;;;6026401;29;20113;-78
2022/07/10 00:50:12;;;;;;;4.43;3.03;;;;;;;;;;6020648;29;20153;-77
2022/07/10 00:53:14;;;;;;;7.35;3.53;;;;;;;;;;6026467;29;20552;-79
2022/07/10 00:56:19;;;;;;;6.88;3.30;;;;;;;;;;6008682;29;20222;-79
2022/07/10 00:59:21;;;;;;;5.55;3.10;;;;;;;;;;6027821;29;20572;-77
2022/07/10 01:02:23;;;;;;;7.93;3.27;;;;;;;;;;6025998;29;20502;-76
2022/07/10 01:05:25;;;;;;;9.73;3.27;;;;;;;;;;6027386;29;20413;-79
2022/07/10 01:08:27;;;;;;;3.70;2.88;;;;;;;;;;6026950;29;20750;-77
2022/07/10 01:11:31;;;;;;;4.50;2.88;;;;;;;;;;6018284;29;20098;-79
2022/07/10 01:14:35;;;;;;;4.30;2.85;;;;;;;;;;6020316;29;20090;-79
2022/07/10 01:17:37;;;;;;;5.05;2.90;;;;;;;;;;6025290;29;20141;-77
2022/07/10 01:20:38;;;;;;;3.35;2.80;;;;;;;;;;6025327;29;20750;-79
2022/07/10 01:23:40;;;;;;;6.05;2.83;;;;;;;;;;6026169;29;20069;-76
2022/07/10 01:26:42;;;;;;;4.50;2.85;;;;;;;;;;6024045;29;20057;-79
2022/07/10 01:29:45;;;;;;;4.50;2.95;;;;;;;;;;6026534;29;20132;-79
2022/07/10 01:32:47;;;;;;;3.78;2.78;;;;;;;;;;6022412;29;20122;-77
2022/07/10 01:35:49;;;;;;;4.97;2.80;;;;;;;;;;6023214;29;20070;-78
2022/07/10 01:38:51;;;;;;;3.60;2.65;;;;;;;;;;6021829;29;20684;-78
2022/07/10 01:41:53;;;;;;;6.30;2.90;;;;;;;;;;6023556;29;20050;-75
2022/07/10 01:44:55;;;;;;;5.50;2.67;;;;;;;;;;6019568;29;20121;-76
2022/07/10 01:47:57;;;;;;;4.32;2.72;;;;;;;;;;6026529;29;20113;-76
2022/07/10 01:50:58;;;;;;;4.63;2.70;;;;;;;;;;6025708;29;20050;-78
2022/07/10 01:54:01;;;;;;;3.83;2.72;;;;;;;;;;6020314;29;20124;-77
2022/07/10 01:57:02;;;;;;;3.77;2.27;;;;;;;;;;6023602;29;20048;-76
2022/07/10 02:00:05;;;;;;;4.82;2.33;;;;;;;;;;6004406;29;20090;-77
2022/07/10 02:06:33;;;;;;;4.47;2.60;;;;;;;;;;6022995;29;20129;-77
2022/07/10 02:09:35;;;;;;;5.68;2.22;;;;;;;;;;6008206;29;21021;-77
2022/07/10 02:12:36;;;;;;;4.85;2.65;;;;;;;;;;6009722;29;20091;-79
2022/07/10 02:15:38;;;;;;;5.38;2.40;;;;;;;;;;6023470;29;20182;-79
2022/07/10 02:18:40;;;;;;;3.13;2.15;;;;;;;;;;6017842;29;20102;-79
2022/07/10 02:21:43;;;;;;;3.90;2.33;;;;;;;;;;6026018;29;20049;-77
2022/07/10 02:24:45;;;;;;;3.00;2.20;;;;;;;;;;6022197;29;20136;-77
2022/07/10 02:27:46;;;;;;;2.55;2.33;;;;;;;;;;6010739;29;20065;-78
2022/07/10 02:30:48;;;;;;;2.90;2.17;;;;;;;;;;6030002;29;20081;-77
2022/07/10 02:33:49;;;;;;;4.07;1.95;;;;;;;;;;6027553;29;20057;-78
2022/07/10 02:36:51;;;;;;;3.10;2.08;;;;;;;;;;6028836;29;20074;-79
2022/07/10 02:39:53;;;;;;;4.82;1.98;;;;;;;;;;6025745;29;20134;-77
2022/07/10 02:42:54;;;;;;;3.55;2.00;;;;;;;;;;6014816;29;20053;-78
2022/07/10 02:45:56;;;;;;;3.83;1.73;;;;;;;;;;6025358;29;20045;-77
2022/07/10 02:48:57;;;;;;;5.43;2.00;;;;;;;;;;6017433;29;20054;-77
2022/07/10 02:51:59;;;;;;;3.03;1.90;;;;;;;;;;6027296;29;20053;-75
2022/07/10 02:55:01;;;;;;;3.85;2.00;;;;;;;;;;6010115;29;20054;-77
2022/07/10 02:58:03;;;;;;;2.92;1.80;;;;;;;;;;6003022;29;20105;-77
2022/07/10 03:01:05;;;;;;;4.05;2.05;;;;;;;;;;6024151;29;20439;-76
2022/07/10 03:04:07;;;;;;;2.85;2.08;;;;;;;;;;6010147;29;20082;-77
2022/07/10 03:07:08;;;;;;;3.38;2.10;;;;;;;;;;6025538;29;20109;-77
2022/07/10 03:10:10;;;;;;;2.95;2.28;;;;;;;;;;6024909;29;20041;-76
2022/07/10 03:13:12;;;;;;;3.03;1.60;;;;;;;;;;6022783;29;20041;-77
2022/07/10 03:16:13;;;;;;;3.15;1.63;;;;;;;;;;6021377;29;20358;-78
2022/07/10 03:19:15;;;;;;;3.63;1.90;;;;;;;;;;6024148;29;20045;-76
2022/07/10 03:22:17;;;;;;;6.05;2.13;;;;;;;;;;6008785;29;20132;-77
2022/07/10 03:25:18;;;;;;;5.13;1.50;;;;;;;;;;6020391;29;20831;-78
2022/07/10 03:28:20;;;;;;;2.85;1.77;;;;;;;;;;6022411;29;20126;-78
2022/07/10 03:31:22;;;;;;;4.72;2.00;;;;;;;;;;6024214;29;20105;-76
2022/07/10 03:34:23;;;;;;;4.93;1.88;;;;;;;;;;6023938;29;20054;-76
2022/07/10 03:37:25;;;;;;;3.40;1.70;;;;;;;;;;6024261;29;20076;-78
2022/07/10 03:40:27;;;;;;;2.85;1.90;;;;;;;;;;5990643;29;20136;-78
2022/07/10 03:43:29;;;;;;;5.93;2.15;;;;;;;;;;6020432;29;20115;-77
2022/07/10 03:46:30;;;;;;;2.67;1.83;;;;;;;;;;6021701;29;20182;-76
2022/07/10 03:49:32;;;;;;;3.95;1.85;;;;;;;;;;6024618;29;20538;-76
2022/07/10 03:52:34;;;;;;;2.88;2.10;;;;;;;;;;6016921;29;20046;-78
2022/07/10 03:55:35;;;;;;;3.28;2.03;;;;;;;;;;6005434;29;20144;-76
2022/07/10 03:58:37;;;;;;;2.97;1.75;;;;;;;;;;6019272;29;20113;-76
2022/07/10 04:01:39;;;;;;;5.22;2.20;;;;;;;;;;6021218;29;20585;-76
2022/07/10 04:04:41;;;;;;;4.50;2.00;;;;;;;;;;6021098;29;20691;-77
2022/07/10 04:07:43;;;;;;;2.88;1.92;;;;;;;;;;6014177;29;20045;-76
2022/07/10 04:10:44;;;;;;;4.57;2.40;;;;;;;;;;6016941;29;20554;-76
2022/07/10 04:13:46;;;;;;;5.32;2.28;;;;;;;;;;6016821;29;20156;-75
2022/07/10 04:16:48;;;;;;;4.75;2.20;;;;;;;;;;6015129;29;20565;-78
2022/07/10 04:19:49;;;;;;;4.70;2.15;;;;;;;;;;6020461;29;20133;-78
2022/07/10 04:22:51;;;;;;;6.90;1.80;;;;;;;;;;6014143;29;20138;-77
2022/07/10 04:25:52;;;;;;;7.45;2.67;;;;;;;;;;6018003;29;20545;-76
2022/07/10 04:28:54;;;;;;;3.50;2.22;;;;;;;;;;5999861;29;20069;-78
2022/07/10 04:31:56;;;;;;;2.17;1.75;;;;;;;;;;6001682;29;20073;-78
2022/07/10 04:34:58;;;;;;;4.93;2.03;;;;;;;;;;6018893;29;20151;-77
2022/07/10 04:38:00;;;;;;;4.35;1.80;;;;;;;;;;6012531;29;20665;-76
2022/07/10 04:41:02;;;;;;;3.75;1.90;;;;;;;;;;6019006;29;20160;-78
2022/07/10 04:44:03;;;;;;;4.72;2.15;;;;;;;;;;6019306;29;20073;-77
2022/07/10 04:47:06;;;;;;;4.93;2.05;;;;;;;;;;6018755;29;20199;-77
2022/07/10 04:50:08;;;;;;;1.97;1.80;;;;;;;;;;6016776;29;20064;-77
2022/07/10 04:53:10;;;;;;;2.67;2.00;;;;;;;;;;6002936;29;20041;-77
2022/07/10 04:56:11;;;;;;;5.28;2.00;;;;;;;;;;6019561;29;20135;-77
2022/07/10 04:59:13;;;;;;;2.83;2.00;;;;;;;;;;6016665;29;20140;-77
2022/07/10 05:02:14;;;;;;;3.15;2.08;;;;;;;;;;6004031;29;20073;-76
2022/07/10 05:05:16;;;;;;;6.65;2.28;;;;;;;;;;5988702;29;20156;-78
2022/07/10 05:08:18;;;;;;;2.10;1.83;;;;;;;;;;6007089;29;20053;-77
2022/07/10 05:11:19;;;;;;;3.85;1.73;;;;;;;;;;6016142;29;20125;-77
2022/07/10 05:14:21;;;;;;;1.92;1.70;;;;;;;;;;6013974;29;20171;-77
2022/07/10 05:17:23;;;;;;;3.53;1.75;;;;;;;;;;6018531;29;20125;-78
2022/07/10 05:20:25;;;;;;;3.10;1.60;;;;;;;;;;5997195;29;20133;-76
2022/07/10 05:23:26;;;;;;;2.90;1.55;;;;;;;;;;6000882;29;20136;-77
2022/07/10 05:26:28;;;;;;;3.85;1.80;;;;;;;;;;6019290;29;20124;-77
2022/07/10 05:29:29;;;;;;;3.85;1.60;;;;;;;;;;6002345;29;20053;-76
2022/07/10 05:32:31;;;;;;;3.58;1.85;;;;;;;;;;6019322;29;20137;-77
2022/07/10 05:35:33;;;;;;;4.60;2.53;;;;;;;;;;6016701;29;20087;-77
2022/07/10 05:38:35;;;;;;;8.25;2.10;;;;;;;;;;6019594;29;20856;-78
2022/07/10 05:41:37;;;;;;;4.25;1.90;;;;;;;;;;6020381;29;20049;-77
2022/07/10 05:44:38;;;;;;;2.80;1.77;;;;;;;;;;6017122;29;20144;-77
2022/07/10 05:47:40;;;;;;;4.40;1.83;;;;;;;;;;6019398;29;20572;-78
2022/07/10 05:50:42;;;;;;;3.78;1.50;;;;;;;;;;6013686;29;20050;-76
2022/07/10 05:53:43;;;;;;;3.08;1.30;;;;;;;;;;6003406;29;20144;-77
2022/07/10 05:56:45;;;;;;;2.85;1.42;;;;;;;;;;6018472;29;20149;-76
2022/07/10 05:59:47;;;;;;;3.88;1.63;;;;;;;;;;6001277;29;20201;-76
2022/07/10 06:02:48;;;;;;;2.25;1.20;;;;;;;;;;6008043;29;20076;-76
2022/07/10 06:05:50;;;;;;;3.05;1.30;;;;;;;;;;6007645;29;20205;-76
2022/07/10 06:08:52;;;;;;;5.30;1.67;;;;;;;;;;6020249;29;20738;-78
2022/07/10 06:11:53;;;;;;;3.65;1.10;;;;;;;;;;6024972;29;20515;-78
2022/07/10 06:14:55;;;;;;;2.78;1.27;;;;;;;;;;6021604;29;20132;-76
2022/07/10 06:17:57;;;;;;;3.22;1.20;;;;;;;;;;6006669;29;20078;-78
2022/07/10 06:20:59;;;;;;;6.20;1.10;;;;;;;;;;6004224;29;20053;-77
2022/07/10 06:24:04;;;;;;;5.43;1.20;;;;;;;;;;6011181;29;20545;-77
2022/07/10 06:27:06;;;;;;;5.07;1.00;;;;;;;;;;6022979;29;20054;-76
2022/07/10 06:30:08;;;;;;;3.65;1.45;;;;;;;;;;6017804;29;20183;-78
2022/07/10 06:33:09;;;;;;;2.72;0.95;;;;;;;;;;6020311;29;20101;-77
2022/07/10 06:36:12;;;;;;;2.40;1.23;;;;;;;;;;6020688;29;20573;-77
2022/07/10 06:39:14;;;;;;;2.33;1.02;;;;;;;;;;6017970;29;20803;-77
2022/07/10 06:42:15;;;;;;;2.40;1.42;;;;;;;;;;6019413;29;20145;-77
2022/07/10 06:45:21;;;;;;;4.40;1.23;;;;;;;;;;6002427;29;20084;-77
2022/07/10 06:48:25;;;;;;;4.35;1.00;;;;;;;;;;5999754;29;20181;-75
2022/07/10 06:51:27;;;;;;;1.65;1.00;;;;;;;;;;6020696;29;20159;-77
2022/07/10 06:54:29;;;;;;;3.95;1.20;;;;;;;;;;6002986;29;20053;-77
2022/07/10 06:57:31;;;;;;;6.53;1.33;;;;;;;;;;6020103;29;20137;-76
2022/07/10 07:00:32;;;;;;;3.72;1.33;;;;;;;;;;6007325;29;20060;-77
2022/07/10 07:03:34;;;;;;;3.85;1.05;;;;;;;;;;6000505;29;20534;-77
2022/07/10 07:06:36;;;;;;;4.50;1.30;;;;;;;;;;6016376;29;20084;-76
2022/07/10 07:09:38;;;;;;;4.22;1.27;;;;;;;;;;6003549;29;20172;-77
2022/07/10 07:12:39;;;;;;;5.05;1.20;;;;;;;;;;6001102;29;20079;-78
2022/07/10 07:15:50;;;;;;;3.95;1.08;;;;;;;;;;6023769;29;20458;-77
2022/07/10 07:18:55;;;;;;;4.55;1.02;;;;;;;;;;6014396;29;20120;-76
2022/07/10 07:25:26;;;;;;;3.85;1.38;;;;;;;;;;6026282;29;20125;-78
2022/07/10 07:28:27;;;;;;;4.55;1.20;;;;;;;;;;6023500;29;20137;-77
2022/07/10 07:31:29;;;;;;;5.15;1.13;;;;;;;;;;6025269;29;20049;-77
2022/07/10 07:34:31;;;;;;;3.40;1.20;;;;;;;;;;6022628;29;20049;-77
2022/07/10 07:37:38;;;;;;;3.83;0.97;;;;;;;;;;6024454;29;20050;-77
2022/07/10 07:40:39;;;;;;;7.43;1.30;;;;;;;;;;6004468;29;20149;-78
2022/07/10 07:43:41;;;;;;;2.58;1.10;;;;;;;;;;6024740;29;20109;-78
2022/07/10 07:46:43;;;;;;;5.45;0.90;;;;;;;;;;6022946;29;20097;-77
2022/07/10 07:49:45;;;;;;;2.20;1.10;;;;;;;;;;6025980;29;20053;-78
2022/07/10 07:52:47;;;;;;;4.38;1.40;;;;;;;;;;6021573;29;20072;-77
2022/07/10 07:55:49;;;;;;;4.97;1.27;;;;;;;;;;6022647;29;20045;-77
2022/07/10 07:58:51;;;;;;;4.13;1.30;;;;;;;;;;6020316;29;20066;-77
2022/07/10 08:01:52;;;;;;;2.78;1.30;;;;;;;;;;6022573;29;20120;-77
2022/07/10 08:04:54;;;;;;;4.90;1.30;;;;;;;;;;6019813;29;20085;-77
2022/07/10 08:07:58;;;;;;;3.13;1.27;;;;;;;;;;6014791;29;20049;-78
2022/07/10 08:11:00;;;;;;;2.55;1.35;;;;;;;;;;6020951;29;20052;-77
2022/07/10 08:14:02;;;;;;;5.35;1.38;;;;;;;;;;6023522;29;20417;-78
2022/07/10 08:17:04;;;;;;;4.50;1.85;;;;;;;;;;6023689;29;20086;-78
2022/07/10 08:20:07;;;;;;;1.63;0.98;;;;;;;;;;6023574;29;20553;-78
2022/07/10 08:23:09;;;;;;;5.28;1.17;;;;;;;;;;6017698;29;20081;-76
2022/07/10 08:26:11;;;;;;;3.58;1.10;;;;;;;;;;6023029;29;20132;-76
2022/07/10 08:29:12;;;;;;;2.95;1.20;;;;;;;;;;6015725;29;20095;-78
2022/07/10 08:32:14;;;;;;;4.03;1.10;;;;;;;;;;6011292;29;20578;-77
2022/07/10 08:35:16;;;;;;;1.98;0.90;;;;;;;;;;5997698;29;20098;-77
2022/07/10 08:38:17;;;;;;;2.92;1.10;;;;;;;;;;6015158;29;20516;-76
2022/07/10 08:41:25;;;;;;;6.38;1.10;;;;;;;;;;6000983;29;20094;-78
2022/07/10 08:44:28;;;;;;;2.65;0.85;;;;;;;;;;6016075;29;20065;-78
2022/07/10 08:47:31;;;;;;;;;;;;;;;;;;6015238;29;20064;-77
2022/07/10 08:50:42;;;;;;;3.53;1.05;;;;;;;;;;6020842;29;19924;-76
2022/07/10 08:53:44;;;;;;;2.35;1.02;;;;;;;;;;6007442;29;20095;-78
2022/07/10 08:56:47;;;;;;;5.50;1.20;;;;;;;;;;6017080;29;20053;-78
2022/07/10 08:59:48;;;;;;;2.83;0.77;;;;;;;;;;6014900;29;20065;-78
2022/07/10 09:02:50;;;;;;;1.50;0.80;;;;;;;;;;6023140;29;20125;-78
2022/07/10 09:05:52;;;;;;;6.15;1.25;;;;;;;;;;6020577;29;20058;-78
2022/07/10 09:09:06;;;;;;;5.00;1.50;;;;;;;;;;6022294;29;20132;-77
2022/07/10 09:12:09;;;;;;;6.57;1.40;;;;;;;;;;6023134;29;20069;-77
2022/07/10 09:15:16;;;;;;;3.72;1.00;;;;;;;;;;6021109;29;20118;-78
2022/07/10 09:18:21;;;;;;;3.55;1.02;;;;;;;;;;6007830;29;20137;-77
2022/07/10 09:21:24;;;;;;;2.88;0.88;;;;;;;;;;6022011;29;20053;-77
2022/07/10 09:24:50;;;;;;;3.33;0.80;;;;;;;;;;6022490;29;20541;-77
2022/07/10 09:27:54;;;;;;;1.35;0.77;;;;;;;;;;6010865;29;20182;-77
2022/07/10 09:30:56;;;;;;;1.25;0.70;;;;;;;;;;6022546;29;20576;-76
2022/07/10 09:33:58;;;;;;;3.33;1.00;;;;;;;;;;6011071;29;20045;-78
2022/07/10 09:37:17;;;;;;;2.43;0.70;;;;;;;;;;6020064;29;20050;-77
2022/07/10 09:40:18;;;;;;;3.10;1.00;;;;;;;;;;6021975;29;20056;-76
2022/07/10 09:43:20;;;;;;;5.88;0.70;;;;;;;;;;6006265;29;20069;-78
2022/07/10 09:46:30;;;;;;;2.70;0.73;;;;;;;;;;6023886;29;20530;-77
2022/07/10 09:49:31;;;;;;;3.33;0.73;;;;;;;;;;6018585;29;20114;-79
2022/07/10 09:52:34;;;;;;;1.88;0.70;;;;;;;;;;6019703;29;20049;-78
2022/07/10 09:55:37;;;;;;;2.55;0.70;;;;;;;;;;6022454;29;20190;-78
2022/07/10 09:58:39;;;;;;;1.65;0.60;;;;;;;;;;6020380;29;20065;-76
2022/07/10 10:02:01;;;;;;;1.80;0.50;;;;;;;;;;6021312;29;20062;-77
2022/07/10 10:05:03;;;;;;;3.75;0.82;;;;;;;;;;6021997;29;20045;-77
2022/07/10 10:08:16;;;;;;;2.10;0.70;;;;;;;;;;6018494;29;20133;-77
2022/07/10 10:11:23;;;;;;;1.65;0.75;;;;;;;;;;6020789;29;20057;-77
2022/07/10 10:14:27;;;;;;;2.78;0.60;;;;;;;;;;6012752;29;20090;-76
2022/07/10 10:17:29;;;;;;;4.05;0.80;;;;;;;;;;5999502;29;20478;-76
2022/07/10 10:20:41;;;;;;;3.65;0.80;;;;;;;;;;6003755;29;20137;-77
2022/07/10 10:23:43;;;;;;;2.95;0.80;;;;;;;;;;6018349;29;20094;-77
2022/07/10 10:26:45;;;;;;;4.22;1.00;;;;;;;;;;6013849;29;20162;-78
2022/07/10 10:29:48;;;;;;;1.23;0.57;;;;;;;;;;6017150;29;20186;-77
2022/07/10 10:32:50;;;;;;;1.90;0.80;;;;;;;;;;6018664;29;20129;-76
2022/07/10 10:35:51;;;;;;;1.15;0.60;;;;;;;;;;6015828;29;20185;-77
2022/07/10 10:38:56;;;;;;;3.33;0.88;;;;;;;;;;6016693;29;20098;-76
2022/07/10 10:41:58;;;;;;;1.42;0.63;;;;;;;;;;6001543;29;20034;-77
2022/07/10 10:45:35;;;;;;;1.35;0.60;;;;;;;;;;6015663;29;20050;-76
2022/07/10 10:48:37;;;;;;;4.07;0.95;;;;;;;;;;6018941;29;20037;-77
2022/07/10 10:52:09;;;;;;;2.95;0.90;;;;;;;;;;6022978;29;20148;-77
2022/07/10 10:55:15;;;;;;;3.00;0.80;;;;;;;;;;6015000;29;20245;-77
2022/07/10 10:58:18;;;;;;;2.63;0.75;;;;;;;;;;6015789;29;20124;-77
2022/07/10 11:01:28;;;;;;;2.05;0.90;;;;;;;;;;6006810;29;20052;-76
2022/07/10 11:04:30;;;;;;;2.33;0.75;;;;;;;;;;6009837;29;20053;-77
2022/07/10 11:07:51;;;;;;;2.00;0.65;;;;;;;;;;6001795;29;20074;-77
2022/07/10 11:10:54;;;;;;;1.90;0.65;;;;;;;;;;6013082;29;20137;-75
2022/07/10 11:13:59;;;;;;;1.05;0.68;;;;;;;;;;6017005;29;20132;-77
2022/07/10 11:17:01;;;;;;;2.53;0.80;;;;;;;;;;6008631;29;20514;-76
2022/07/10 11:20:04;;;;;;;1.77;0.68;;;;;;;;;;6002689;29;20053;-76
2022/07/10 11:23:54;;;;;;;4.25;0.90;;;;;;;;;;5989351;29;20054;-78
2022/07/10 11:27:08;;;;;;;1.95;0.70;;;;;;;;;;5990392;29;20046;-78
2022/07/10 11:30:11;;;;;;;3.45;0.82;;;;;;;;;;5986396;29;20128;-77
2022/07/10 11:33:14;;;;;;;4.03;0.70;;;;;;;;;;6003422;29;20141;-78
2022/07/10 11:36:33;;;;;;;1.80;0.70;;;;;;;;;;5987071;29;20668;-77
2022/07/10 11:39:35;;;;;;;2.70;0.75;;;;;;;;;;6005409;29;20305;-78
2022/07/10 11:42:55;;;;;;;1.67;0.82;;;;;;;;;;6006187;29;20253;-78
2022/07/10 11:46:00;;;;;;;1.75;0.77;;;;;;;;;;6003961;29;20185;-78
2022/07/10 11:49:04;;;;;;;2.55;0.90;;;;;;;;;;6004665;29;20045;-78
2022/07/10 11:52:06;;;;;;;2.92;1.02;;;;;;;;;;6008433;29;20061;-78
2022/07/10 11:55:16;;;;;;;1.80;0.70;;;;;;;;;;6014924;29;20127;-78
2022/07/10 11:58:18;;;;;;;1.95;0.80;;;;;;;;;;6013647;29;20136;-79
2022/07/10 12:01:20;;;;;;;;;;;;;;;;;;6001257;29;20562;-79
2022/07/10 12:04:25;;;;;;;3.85;1.20;;;;;;;;;;6015527;29;19928;-77
2022/07/10 12:07:27;;;;;;;4.03;1.08;;;;;;;;;;6015572;29;20045;-78
2022/07/10 12:10:29;;;;;;;1.73;1.10;;;;;;;;;;6016289;29;20612;-78
2022/07/10 12:13:31;;;;;;;1.25;0.73;;;;;;;;;;6014209;29;20081;-77
2022/07/10 12:16:35;;;;;;;2.47;0.88;;;;;;;;;;6017622;29;20546;-77
2022/07/10 12:19:38;;;;;;;1.00;0.80;;;;;;;;;;6016462;29;20616;-78
2022/07/10 12:22:39;;;;;;;1.60;0.95;;;;;;;;;;6009992;29;20140;-78
2022/07/10 12:25:42;;;;;;;3.10;0.70;;;;;;;;;;5994357;29;20505;-77
2022/07/10 12:28:52;;;;;;;2.35;0.75;;;;;;;;;;6000037;29;20057;-78
2022/07/10 12:31:56;;;;;;;1.92;0.60;;;;;;;;;;6005078;29;20552;-78
2022/07/10 12:34:59;;;;;;;0.90;0.55;;;;;;;;;;6011833;29;20057;-78
2022/07/10 12:38:00;;;;;;;2.63;0.60;;;;;;;;;;6010959;29;20129;-78
2022/07/10 12:41:13;;;;;;;1.17;0.52;;;;;;;;;;6016764;29;20626;-78
2022/07/10 12:44:42;;;;;;;1.98;0.55;;;;;;;;;;6015143;29;20113;-77
2022/07/10 12:47:45;;;;;;;1.17;0.60;;;;;;;;;;6004047;29;20519;-78
2022/07/10 12:50:47;;;;;;;1.23;0.55;;;;;;;;;;6006043;29;20050;-78
2022/07/10 12:53:48;;;;;;;2.00;0.45;;;;;;;;;;6016331;29;20088;-77
2022/07/10 12:56:56;;;;;;;0.68;0.40;;;;;;;;;;6021126;29;20206;-78
2022/07/10 13:00:06;;;;;;;1.38;0.40;;;;;;;;;;6015727;29;20156;-77
2022/07/10 13:03:09;;;;;;;1.13;0.60;;;;;;;;;;6012354;29;20542;-78
2022/07/10 13:06:30;;;;;;;1.40;0.55;;;;;;;;;;6009566;29;20132;-78
2022/07/10 13:09:32;;;;;;;1.15;0.40;;;;;;;;;;5991597;29;20050;-78
2022/07/10 13:12:34;;;;;;;1.05;0.50;;;;;;;;;;6010436;29;20062;-77
2022/07/10 13:15:40;;;;;;;1.55;0.50;;;;;;;;;;6008678;29;20446;-77
2022/07/10 13:18:43;;;;;;;1.20;0.50;;;;;;;;;;6018884;29;20118;-78
2022/07/10 13:21:46;;;;;;;1.35;0.30;;;;;;;;;;6020851;29;20480;-77
2022/07/10 13:24:47;;;;;;;0.47;0.40;;;;;;;;;;6015366;29;20502;-77
2022/07/10 13:27:51;;;;;;;1.05;0.40;;;;;;;;;;6018168;29;20129;-77
2022/07/10 13:30:53;;;;;;;1.08;0.40;;;;;;;;;;6020539;29;20129;-77
2022/07/10 13:33:54;;;;;;;1.20;0.50;;;;;;;;;;6019474;29;20182;-78
2022/07/10 13:36:56;;;;;;;0.30;0.30;;;;;;;;;;6020069;29;20049;-78
2022/07/10 13:39:58;;;;;;;1.95;0.60;;;;;;;;;;6017577;29;20078;-77
2022/07/10 13:43:00;;;;;;;1.00;0.35;;;;;;;;;;6012692;29;20057;-78
2022/07/10 13:46:02;;;;;;;0.45;0.40;;;;;;;;;;6019333;29;20102;-78
2022/07/10 13:49:04;;;;;;;1.13;0.53;;;;;;;;;;6020278;29;20045;-77
2022/07/10 13:52:06;;;;;;;0.80;0.50;;;;;;;;;;6016218;29;20045;-77
2022/07/10 13:55:08;;;;;;;0.77;0.30;;;;;;;;;;6018337;29;20434;-77
2022/07/10 13:58:10;;;;;;;0.40;0.40;;;;;;;;;;6017749;29;20129;-77
2022/07/10 14:01:12;;;;;;;0.60;0.40;;;;;;;;;;6013644;29;20523;-78
2022/07/10 14:04:13;;;;;;;0.75;0.30;;;;;;;;;;6019666;29;20132;-77
2022/07/10 14:07:15;;;;;;;0.52;0.47;;;;;;;;;;6016539;29;20441;-78
2022/07/10 14:10:17;;;;;;;0.45;0.40;;;;;;;;;;6019599;29;20042;-77
2022/07/10 14:13:18;;;;;;;0.95;0.50;;;;;;;;;;6017652;29;20177;-77
2022/07/10 14:16:20;;;;;;;1.38;0.50;;;;;;;;;;6015113;29;20077;-76
2022/07/10 14:19:22;;;;;;;0.38;0.22;;;;;;;;;;6018700;29;20050;-76
2022/07/10 14:22:24;;;;;;;0.30;0.30;;;;;;;;;;6000662;29;20132;-77
2022/07/10 14:25:27;;;;;;;1.65;0.45;;;;;;;;;;6000727;29;20133;-78
2022/07/10 14:28:28;;;;;;;0.43;0.40;;;;;;;;;;6014047;29;20053;-79
2022/07/10 14:31:31;;;;;;;0.47;0.35;;;;;;;;;;6021378;29;20049;-78
2022/07/10 14:34:33;;;;;;;1.02;0.35;;;;;;;;;;6022477;29;20140;-77
2022/07/10 14:37:34;;;;;;;0.57;0.30;;;;;;;;;;6019914;29;20138;-79
2022/07/10 14:40:36;;;;;;;0.30;0.30;;;;;;;;;;6018119;29;20045;-76
2022/07/10 14:43:38;;;;;;;3.25;0.30;;;;;;;;;;6014703;29;20479;-77
2022/07/10 14:46:40;;;;;;;0.30;0.30;;;;;;;;;;6026954;29;20053;-79
2022/07/10 14:49:42;;;;;;;0.30;0.30;;;;;;;;;;6012347;29;20065;-78
2022/07/10 14:52:44;;;;;;;1.02;0.40;;;;;;;;;;6016602;29;20069;-77
2022/07/10 14:55:45;;;;;;;0.30;0.30;;;;;;;;;;6013259;29;20053;-76
2022/07/10 14:58:47;;;;;;;0.35;0.35;;;;;;;;;;6030320;29;20461;-80
2022/07/10 15:02:09;;;;;;;0.40;0.40;;;;;;;;;;6004767;29;20050;-78
2022/07/10 15:05:11;;;;;;;0.40;0.30;;;;;;;;;;6022289;29;20049;-78
2022/07/10 15:08:12;;;;;;;1.58;0.40;;;;;;;;;;5996050;29;20093;-79
2022/07/10 15:11:22;;;;;;;0.40;0.40;;;;;;;;;;6013018;29;20096;-78
2022/07/10 15:14:25;;;;;;;0.50;0.50;;;;;;;;;;6012264;29;20125;-79
2022/07/10 15:17:28;;;;;;;0.63;0.38;;;;;;;;;;6008800;29;20050;-79
2022/07/10 15:20:30;;;;;;;0.40;0.40;;;;;;;;;;6020731;29;20081;-78
2022/07/10 15:23:31;;;;;;;2.15;0.45;;;;;;;;;;6017801;29;20061;-80
2022/07/10 15:26:33;;;;;;;0.52;0.50;;;;;;;;;;6020088;29;20106;-79
2022/07/10 15:29:35;;;;;;;0.50;0.50;;;;;;;;;;6010861;29;20086;-80
2022/07/10 15:32:36;;;;;;;0.50;0.50;;;;;;;;;;6026157;29;20061;-80
2022/07/10 15:35:38;;;;;;;1.83;0.55;;;;;;;;;;6024803;29;20073;-79
2022/07/10 15:38:40;;;;;;;0.82;0.80;;;;;;;;;;6007612;29;20053;-79
2022/07/10 15:41:46;;;;;;;3.30;1.00;;;;;;;;;;6023426;29;20715;-79
2022/07/10 15:44:48;;;;;;;0.93;0.88;;;;;;;;;;6021035;29;20061;-79
2022/07/10 15:47:50;;;;;;;1.52;0.75;;;;;;;;;;6018968;29;20056;-77
2022/07/10 15:50:54;;;;;;;1.05;0.60;;;;;;;;;;6011128;29;20073;-78
2022/07/10 15:53:56;;;;;;;0.70;0.70;;;;;;;;;;6007475;29;20049;-78
2022/07/10 15:56:58;;;;;;;1.13;1.02;;;;;;;;;;6023960;29;20146;-79
2022/07/10 16:00:00;;;;;;;1.98;1.40;;;;;;;;;;6023645;29;20075;-78
2022/07/10 16:03:07;;;;;;;2.25;1.33;;;;;;;;;;6019344;29;20068;-79
2022/07/10 16:06:10;;;;;;;2.30;1.60;;;;;;;;;;6022319;29;20041;-79
2022/07/10 16:09:12;;;;;;;2.55;1.38;;;;;;;;;;6024741;29;20049;-79
2022/07/10 16:12:17;;;;;;;2.22;1.38;;;;;;;;;;6008561;29;20045;-80
2022/07/10 16:15:19;;;;;;;2.10;1.65;;;;;;;;;;6023014;29;20049;-81
2022/07/10 16:18:20;;;;;;;2.10;1.90;;;;;;;;;;6025728;29;20049;-79
2022/07/10 16:21:22;;;;;;;2.92;1.90;;;;;;;;;;6018139;29;20062;-79
2022/07/10 16:24:24;;;;;;;2.30;1.92;;;;;;;;;;6023440;29;20074;-79
2022/07/10 16:27:26;;;;;;;3.58;1.88;;;;;;;;;;6019240;29;20574;-79
2022/07/10 16:30:27;;;;;;;3.13;2.05;;;;;;;;;;6025044;29;20050;-79
2022/07/10 16:33:29;;;;;;;2.28;1.85;;;;;;;;;;6024549;29;20502;-80
2022/07/10 16:36:31;;;;;;;1.97;1.77;;;;;;;;;;6023603;29;20140;-79
2022/07/10 16:39:33;;;;;;;2.30;1.60;;;;;;;;;;6014180;29;20042;-79
2022/07/10 16:42:34;;;;;;;2.40;2.20;;;;;;;;;;6021905;29;20066;-78
2022/07/10 16:45:37;;;;;;;1.63;1.52;;;;;;;;;;6022420;29;20065;-77
2022/07/10 16:48:39;;;;;;;1.40;1.30;;;;;;;;;;6020657;29;20509;-78
2022/07/10 16:51:40;;;;;;;1.65;1.50;;;;;;;;;;6019529;29;20148;-77
2022/07/10 16:54:42;;;;;;;1.60;1.48;;;;;;;;;;6015746;29;20108;-77
2022/07/10 16:57:43;;;;;;;2.40;1.52;;;;;;;;;;6018012;29;20129;-78
2022/07/10 17:00:45;;;;;;;1.52;1.42;;;;;;;;;;6005770;29;20533;-77
2022/07/10 17:03:47;;;;;;;2.00;1.77;;;;;;;;;;6020034;29;20077;-78
2022/07/10 17:06:48;;;;;;;1.98;1.75;;;;;;;;;;6019779;29;20049;-79
2022/07/10 17:09:50;;;;;;;1.88;1.77;;;;;;;;;;6018451;29;20136;-77
2022/07/10 17:12:52;;;;;;;1.90;1.70;;;;;;;;;;6017399;29;20190;-77
2022/07/10 17:15:54;;;;;;;2.38;1.83;;;;;;;;;;6018457;29;20794;-78
2022/07/10 17:18:58;;;;;;;2.22;2.00;;;;;;;;;;6020359;29;20193;-78
2022/07/10 17:22:00;;;;;;;2.10;1.90;;;;;;;;;;6015912;29;20049;-77
2022/07/10 17:25:02;;;;;;;2.03;1.92;;;;;;;;;;6020805;29;20068;-78
2022/07/10 17:28:03;;;;;;;2.10;1.95;;;;;;;;;;6017734;29;20131;-78
2022/07/10 17:31:05;;;;;;;2.15;1.95;;;;;;;;;;6021775;29;20418;-79
2022/07/10 17:34:07;;;;;;;2.50;2.30;;;;;;;;;;6016794;29;20045;-78
2022/07/10 17:37:09;;;;;;;2.27;2.07;;;;;;;;;;6012516;29;20053;-78
2022/07/10 17:40:12;;;;;;;2.30;2.10;;;;;;;;;;6020994;29;20893;-78
2022/07/10 17:43:14;;;;;;;2.20;2.03;;;;;;;;;;6017922;29;20094;-79
2022/07/10 17:46:15;;;;;;;2.35;2.15;;;;;;;;;;6019336;29;20534;-78
2022/07/10 17:49:19;;;;;;;2.60;2.40;;;;;;;;;;6020065;29;20517;-78
2022/07/10 17:52:21;;;;;;;2.60;2.40;;;;;;;;;;6014620;29;20524;-79
2022/07/10 17:55:23;;;;;;;2.70;2.50;;;;;;;;;;6019605;29;20167;-78
2022/07/10 17:58:25;;;;;;;2.85;2.65;;;;;;;;;;6003662;29;20415;-79
2022/07/10 18:01:28;;;;;;;3.15;2.72;;;;;;;;;;6020335;29;20413;-78
2022/07/10 18:04:31;;;;;;;2.70;2.42;;;;;;;;;;6019896;29;20045;-79
2022/07/10 18:07:35;;;;;;;3.22;2.50;;;;;;;;;;6001688;29;20045;-78
2022/07/10 18:10:37;;;;;;;3.07;2.40;;;;;;;;;;6003716;29;20057;-78
2022/07/10 18:13:38;;;;;;;3.25;2.45;;;;;;;;;;6017270;29;20056;-79
2022/07/10 18:16:42;;;;;;;4.37;2.83;;;;;;;;;;6020081;29;20077;-78
2022/07/10 18:19:50;;;;;;;3.53;2.58;;;;;;;;;;6018683;29;20144;-78
2022/07/10 18:22:55;;;;;;;2.85;2.63;;;;;;;;;;6005743;29;20094;-79
2022/07/10 18:25:56;;;;;;;4.32;2.88;;;;;;;;;;6019049;29;20189;-80